METAR Data
IDs: Format: Raw Decoded Include TAF

Data at: 1755 UTC 16 Oct 2021

LFJL 161730Z AUTO 00000KT 9999 SCT026 07/05 Q1020 NOSIG